Time;durP1;ratioP1;P1;durP2;ratioP2;P2;SDS_P1;SDS_P2;PMS_P1;PMS_P2;Temp;Humidity;BMP_temperature;BMP_pressure;BME280_temperature;BME280_humidity;BME280_pressure;Samples;Min_cycle;Max_cycle;Signal;HPM_P1;HPM_P2
2022/09/18 00:00:01;;;;;;;8.32;1.15;;;9.90;99.90;;;;;;4901283;29;20210;-85
2022/09/18 00:02:27;;;;;;;6.63;1.27;;;9.90;99.90;;;;;;4901077;29;20218;-86
2022/09/18 00:04:53;;;;;;;6.50;1.23;;;9.90;99.90;;;;;;4901106;29;20186;-88
2022/09/18 00:07:18;;;;;;;6.22;1.55;;;9.80;99.90;;;;;;4918079;29;20563;-86
2022/09/18 00:09:44;;;;;;;4.07;0.88;;;9.80;99.90;;;;;;4918156;29;20230;-86
2022/09/18 00:12:10;;;;;;;9.88;1.63;;;9.90;99.90;;;;;;4918190;29;20626;-86
2022/09/18 00:14:36;;;;;;;7.28;1.17;;;9.90;99.90;;;;;;4901058;29;20182;-89
2022/09/18 00:17:02;;;;;;;5.35;1.48;;;9.80;99.90;;;;;;4917997;29;20178;-86
2022/09/18 00:19:29;;;;;;;8.70;1.63;;;9.80;99.90;;;;;;4884761;29;20541;-85
2022/09/18 00:21:55;;;;;;;9.70;1.58;;;9.80;99.90;;;;;;4900866;29;20269;-86
2022/09/18 00:24:22;;;;;;;11.40;1.75;;;9.90;99.90;;;;;;4917893;29;20182;-85
2022/09/18 00:26:48;;;;;;;9.82;1.42;;;9.90;99.90;;;;;;4901050;29;20186;-87
2022/09/18 00:29:16;;;;;;;5.93;1.50;;;9.90;99.90;;;;;;4917951;29;20185;-87
2022/09/18 00:31:41;;;;;;;8.95;1.45;;;9.90;99.90;;;;;;5300226;23;21639;-90
2022/09/18 00:34:11;;;;;;;9.95;1.13;;;9.90;99.90;;;;;;4895050;29;20207;-87
2022/09/18 00:36:38;;;;;;;6.32;1.48;;;9.90;99.90;;;;;;4883060;29;20187;-87
2022/09/18 00:39:05;;;;;;;8.57;1.30;;;9.90;99.90;;;;;;4883047;29;20191;-87
2022/09/18 00:41:36;;;;;;;11.10;1.20;;;9.90;99.90;;;;;;4883082;29;20214;-86
2022/09/18 00:44:32;;;;;;;7.70;1.35;;;9.90;99.90;;;;;;4883195;29;20270;-89
2022/09/18 00:47:10;;;;;;;5.90;1.10;;;9.90;99.90;;;;;;4882995;29;20182;-90
2022/09/18 00:49:47;;;;;;;12.55;1.48;;;9.90;99.90;;;;;;4898731;29;20529;-89
2022/09/18 00:52:14;;;;;;;5.47;1.17;;;9.90;99.90;;;;;;4899644;29;20294;-90
2022/09/18 00:54:46;;;;;;;5.93;1.08;;;9.90;99.90;;;;;;4899796;29;20618;-88
2022/09/18 00:57:20;;;;;;;7.10;1.23;;;10.00;99.90;;;;;;4882809;29;20176;-86
2022/09/18 00:59:48;;;;;;;5.35;1.15;;;10.00;99.90;;;;;;4883001;29;20269;-86
2022/09/18 01:02:14;;;;;;;6.15;1.63;;;9.90;99.90;;;;;;4882217;29;20215;-87
2022/09/18 01:04:42;;;;;;;6.93;0.95;;;10.00;99.90;;;;;;4882430;29;20270;-92
2022/09/18 01:07:34;;;;;;;7.93;1.23;;;10.00;99.90;;;;;;4882714;29;20187;-88
2022/09/18 01:10:03;;;;;;;8.63;1.23;;;10.00;99.90;;;;;;4882836;29;20189;-88
2022/09/18 01:12:38;;;;;;;10.02;1.08;;;10.00;99.90;;;;;;4899388;29;20176;-89
2022/09/18 01:15:13;;;;;;;5.55;1.05;;;10.00;99.90;;;;;;4882499;29;20621;-88
2022/09/18 01:17:50;;;;;;;6.23;1.20;;;10.00;99.90;;;;;;4898172;29;20234;-90
2022/09/18 01:20:40;;;;;;;6.33;1.40;;;10.00;99.90;;;;;;4898015;29;20215;-86
2022/09/18 01:23:44;;;;;;;5.40;1.23;;;10.00;99.90;;;;;;4897891;29;20309;-89
2022/09/18 01:26:31;;;;;;;8.18;1.23;;;9.90;99.90;;;;;;4897925;29;20175;-89
2022/09/18 01:29:09;;;;;;;6.30;1.08;;;9.80;99.90;;;;;;4898183;29;20183;-92
2022/09/18 01:31:41;;;;;;;6.03;1.35;;;9.80;99.90;;;;;;4882356;29;20666;-91
2022/09/18 01:34:24;;;;;;;7.70;1.38;;;9.70;99.90;;;;;;4898779;29;20211;-86
2022/09/18 01:37:08;;;;;;;5.03;0.80;;;9.70;99.90;;;;;;4902172;29;20172;-89
2022/09/18 01:39:44;;;;;;;8.27;1.15;;;9.70;99.90;;;;;;4885758;29;20182;-91
2022/09/18 01:42:11;;;;;;;8.07;1.50;;;9.70;99.90;;;;;;4885716;29;20301;-92
2022/09/18 01:44:43;;;;;;;5.88;1.30;;;9.70;99.90;;;;;;4885952;29;20180;-93
2022/09/18 01:47:12;;;;;;;7.47;1.23;;;9.70;99.90;;;;;;4885607;29;20172;-92
2022/09/18 01:49:46;;;;;;;5.87;1.30;;;9.70;99.90;;;;;;4902578;29;20179;-92
2022/09/18 01:52:17;;;;;;;7.57;1.70;;;9.70;99.90;;;;;;4885996;29;20179;-91
2022/09/18 01:54:46;;;;;;;6.50;1.27;;;9.70;99.90;;;;;;4885243;29;20236;-87
2022/09/18 01:57:21;;;;;;;6.30;1.33;;;9.70;99.90;;;;;;4901884;29;20615;-88
2022/09/18 02:00:01;;;;;;;5.38;1.00;;;9.70;99.90;;;;;;4900750;29;20270;-88
2022/09/18 02:02:36;;;;;;;8.38;2.25;;;9.70;99.90;;;;;;4884508;29;20235;-87
2022/09/18 02:05:06;;;;;;;10.85;1.63;;;9.80;99.90;;;;;;4884961;29;20178;-86
2022/09/18 02:07:55;;;;;;;7.55;1.20;;;9.80;99.90;;;;;;4885355;29;20266;-86
2022/09/18 02:10:23;;;;;;;4.03;0.77;;;9.70;99.90;;;;;;4885093;29;20190;-86
2022/09/18 02:12:52;;;;;;;9.98;1.17;;;9.70;99.90;;;;;;4901657;29;20637;-87
2022/09/18 02:15:19;;;;;;;5.95;1.13;;;9.70;99.90;;;;;;4901331;29;20202;-88
2022/09/18 02:18:02;;;;;;;9.00;1.35;;;9.60;99.90;;;;;;4884364;29;20270;-87
2022/09/18 02:20:30;;;;;;;5.43;0.95;;;9.60;99.90;;;;;;4884673;29;20244;-88
2022/09/18 02:23:01;;;;;;;6.82;1.20;;;9.70;99.90;;;;;;4884377;29;20313;-86
2022/09/18 02:25:42;;;;;;;3.53;0.88;;;9.70;99.90;;;;;;4901383;29;20258;-86
2022/09/18 02:28:09;;;;;;;3.20;0.80;;;9.60;99.90;;;;;;4884670;29;20182;-88
2022/09/18 02:30:38;;;;;;;7.20;1.10;;;9.60;99.90;;;;;;4900406;29;20526;-88
2022/09/18 02:33:07;;;;;;;10.20;1.27;;;9.60;99.90;;;;;;4910504;29;20226;-85
2022/09/18 02:35:44;;;;;;;8.15;1.20;;;9.70;99.90;;;;;;4903228;29;20190;-89
2022/09/18 02:38:43;;;;;;;6.55;1.13;;;9.70;99.90;;;;;;4903136;29;20185;-87
2022/09/18 02:41:29;;;;;;;8.15;1.20;;;9.70;99.90;;;;;;4903183;29;20201;-88
2022/09/18 02:44:08;;;;;;;11.02;1.42;;;9.60;99.90;;;;;;4902880;29;20197;-85
2022/09/18 02:46:58;;;;;;;13.32;1.55;;;9.70;99.90;;;;;;4902387;29;20601;-87
2022/09/18 02:49:42;;;;;;;3.00;0.93;;;9.70;99.90;;;;;;4918196;29;20629;-89
2022/09/18 02:52:24;;;;;;;8.93;1.30;;;9.60;99.90;;;;;;4902682;29;20504;-88
2022/09/18 02:55:18;;;;;;;8.52;1.05;;;9.60;99.90;;;;;;4902580;29;20167;-88
2022/09/18 02:58:05;;;;;;;5.07;1.13;;;9.60;99.90;;;;;;4896834;29;20229;-87
2022/09/18 03:00:31;;;;;;;13.43;1.38;;;9.60;99.90;;;;;;4902307;29;20174;-87
2022/09/18 03:02:58;;;;;;;7.50;1.35;;;9.70;99.90;;;;;;4919163;29;20262;-87
2022/09/18 03:05:25;;;;;;;11.05;1.40;;;9.70;99.90;;;;;;4902751;29;20179;-87
2022/09/18 03:07:51;;;;;;;4.43;1.00;;;9.70;99.90;;;;;;4902651;29;20499;-87
2022/09/18 03:10:16;;;;;;;5.88;1.15;;;9.70;99.90;;;;;;4902599;29;20278;-88
2022/09/18 03:12:42;;;;;;;6.13;0.95;;;9.70;99.90;;;;;;4902550;29;20258;-87
2022/09/18 03:15:09;;;;;;;9.98;0.90;;;9.70;99.90;;;;;;4902687;29;20183;-90
2022/09/18 03:17:35;;;;;;;7.60;1.02;;;9.70;99.90;;;;;;4902361;29;20179;-87
2022/09/18 03:20:02;;;;;;;9.38;1.10;;;9.70;99.90;;;;;;4902534;29;20273;-87
2022/09/18 03:22:28;;;;;;;7.15;1.35;;;9.70;99.90;;;;;;4902248;29;20210;-92
2022/09/18 03:24:56;;;;;;;7.95;1.42;;;9.70;99.90;;;;;;4918036;29;20179;-88
2022/09/18 03:27:22;;;;;;;7.88;1.13;;;9.70;99.90;;;;;;4902269;29;20641;-87
2022/09/18 03:29:47;;;;;;;5.57;1.33;;;9.70;99.90;;;;;;4902359;29;20240;-88
2022/09/18 03:32:16;;;;;;;6.93;1.38;;;9.70;99.90;;;;;;4919075;29;20246;-91
2022/09/18 03:34:42;;;;;;;7.43;1.33;;;9.60;99.90;;;;;;4917798;29;20181;-86
2022/09/18 03:37:07;;;;;;;10.70;1.25;;;9.60;99.90;;;;;;4902138;29;20175;-89
2022/09/18 03:39:33;;;;;;;4.45;1.08;;;9.60;99.90;;;;;;4902096;29;20230;-90
2022/09/18 03:41:58;;;;;;;3.28;0.75;;;9.60;99.90;;;;;;4902109;29;20206;-90
2022/09/18 03:44:26;;;;;;;4.03;1.13;;;9.50;99.90;;;;;;4901896;29;20195;-89
2022/09/18 03:46:52;;;;;;;4.03;0.73;;;9.50;99.90;;;;;;4919096;29;20606;-88
2022/09/18 03:49:17;;;;;;;6.25;1.00;;;9.50;99.90;;;;;;4901627;29;20182;-87
2022/09/18 03:51:43;;;;;;;8.57;1.00;;;9.50;99.90;;;;;;4917658;29;20182;-89
2022/09/18 03:54:08;;;;;;;7.03;1.20;;;9.50;99.90;;;;;;4901685;29;20249;-90
2022/09/18 03:56:37;;;;;;;4.57;0.90;;;9.50;99.90;;;;;;4918538;29;20183;-88
2022/09/18 03:59:03;;;;;;;5.03;1.10;;;9.50;99.90;;;;;;4901795;29;20182;-91
2022/09/18 04:01:29;;;;;;;7.85;1.17;;;9.50;99.90;;;;;;4901561;29;20214;-89
2022/09/18 04:03:54;;;;;;;7.20;1.00;;;9.50;99.90;;;;;;4901388;29;20205;-87
2022/09/18 04:06:20;;;;;;;7.75;1.17;;;9.50;99.90;;;;;;4917121;29;20690;-87
2022/09/18 04:08:46;;;;;;;6.27;1.10;;;9.50;99.90;;;;;;4917413;29;20197;-86
2022/09/18 04:11:12;;;;;;;9.38;1.45;;;9.50;99.90;;;;;;4901851;29;20187;-86
2022/09/18 04:13:37;;;;;;;2.47;0.80;;;9.40;99.90;;;;;;4901461;29;20644;-88
2022/09/18 04:16:04;;;;;;;4.80;0.90;;;9.50;99.90;;;;;;4918574;29;20214;-92
2022/09/18 04:18:30;;;;;;;5.53;1.02;;;9.50;99.90;;;;;;4901754;29;20277;-88
2022/09/18 04:20:56;;;;;;;4.72;0.90;;;9.50;99.90;;;;;;4901803;29;20277;-89
2022/09/18 04:23:22;;;;;;;5.07;0.90;;;9.50;99.90;;;;;;4901609;29;20675;-88
2022/09/18 04:25:47;;;;;;;11.13;1.30;;;9.50;99.90;;;;;;4901680;29;20182;-89
2022/09/18 04:28:13;;;;;;;4.40;0.97;;;9.40;99.90;;;;;;4917593;29;20222;-91
2022/09/18 04:30:39;;;;;;;4.85;1.00;;;9.50;99.90;;;;;;4918422;29;20261;-90
2022/09/18 04:33:06;;;;;;;3.63;0.80;;;9.40;99.90;;;;;;4901182;29;20610;-88
2022/09/18 04:35:35;;;;;;;7.47;1.33;;;9.40;99.90;;;;;;4901707;29;20513;-88
2022/09/18 04:38:00;;;;;;;3.05;0.70;;;9.40;99.90;;;;;;4901464;29;20237;-89
2022/09/18 04:40:26;;;;;;;10.10;1.67;;;9.40;99.90;;;;;;4901584;29;20191;-89
2022/09/18 04:42:52;;;;;;;7.70;1.15;;;9.40;99.90;;;;;;4901527;29;20214;-88
2022/09/18 04:45:17;;;;;;;4.78;1.23;;;9.40;99.90;;;;;;4901488;29;20179;-88
2022/09/18 04:47:45;;;;;;;8.03;1.37;;;9.40;99.90;;;;;;4901425;29;20167;-89
2022/09/18 04:50:11;;;;;;;8.25;0.93;;;9.40;99.90;;;;;;4901595;29;20626;-86
2022/09/18 04:52:37;;;;;;;5.78;1.20;;;9.30;99.90;;;;;;4901413;29;20186;-89
2022/09/18 04:55:04;;;;;;;7.88;1.08;;;9.30;99.90;;;;;;4901436;29;20179;-89
2022/09/18 04:57:29;;;;;;;7.20;1.00;;;9.30;99.90;;;;;;4901633;29;20186;-89
2022/09/18 04:59:55;;;;;;;7.10;1.27;;;9.30;99.90;;;;;;4901503;29;20183;-88
2022/09/18 05:02:22;;;;;;;5.60;1.07;;;9.30;99.90;;;;;;4896884;29;20211;-88
2022/09/18 05:04:47;;;;;;;6.72;1.15;;;9.20;99.90;;;;;;4899037;29;20175;-89
2022/09/18 05:07:24;;;;;;;9.55;1.17;;;9.20;99.90;;;;;;4899336;29;20178;-92
2022/09/18 05:09:50;;;;;;;7.20;0.90;;;9.20;99.90;;;;;;4882640;29;20572;-92
2022/09/18 05:12:16;;;;;;;5.03;1.10;;;9.20;99.90;;;;;;4903075;29;20751;-90
2022/09/18 05:14:42;;;;;;;2.92;0.65;;;9.20;99.90;;;;;;4902825;29;20179;-90
2022/09/18 05:17:08;;;;;;;12.90;1.25;;;9.20;99.90;;;;;;4903151;29;20203;-91
2022/09/18 05:19:34;;;;;;;6.50;1.00;;;9.20;99.90;;;;;;4886202;29;20231;-92
2022/09/18 05:22:00;;;;;;;3.65;0.73;;;9.20;99.90;;;;;;4886262;29;20577;-88
2022/09/18 05:24:25;;;;;;;5.07;1.15;;;9.10;99.90;;;;;;4885913;29;20501;-89
2022/09/18 05:26:53;;;;;;;8.77;1.10;;;9.10;99.90;;;;;;4886087;29;20187;-88
2022/09/18 05:29:19;;;;;;;8.90;1.13;;;9.10;99.90;;;;;;4886213;29;20175;-90
2022/09/18 05:31:44;;;;;;;5.63;1.10;;;9.10;99.90;;;;;;4885950;29;20198;-88
2022/09/18 05:34:10;;;;;;;7.00;1.23;;;9.10;99.90;;;;;;4904176;29;20285;-88
2022/09/18 05:36:38;;;;;;;8.18;1.23;;;9.10;99.90;;;;;;4904756;29;20559;-90
2022/09/18 05:39:03;;;;;;;8.88;1.23;;;9.20;99.90;;;;;;4920463;29;20713;-92
2022/09/18 05:41:29;;;;;;;7.63;1.13;;;9.20;99.90;;;;;;4904665;29;20277;-90
2022/09/18 05:43:55;;;;;;;5.90;1.48;;;9.20;99.90;;;;;;4904801;29;20197;-91
2022/09/18 05:46:21;;;;;;;5.43;0.82;;;9.20;99.90;;;;;;4904632;29;20274;-93
2022/09/18 05:48:48;;;;;;;4.47;0.85;;;9.30;99.90;;;;;;4904612;29;20244;-90
2022/09/18 05:51:14;;;;;;;5.78;1.20;;;9.30;99.90;;;;;;4904499;29;20640;-89
2022/09/18 05:53:41;;;;;;;6.35;0.85;;;9.30;99.90;;;;;;4904419;29;20209;-89
2022/09/18 05:56:08;;;;;;;7.07;1.33;;;9.40;99.90;;;;;;4921380;29;20193;-88
2022/09/18 05:58:33;;;;;;;10.40;1.42;;;9.40;99.90;;;;;;4904526;29;20221;-92
2022/09/18 06:01:01;;;;;;;5.60;1.08;;;9.50;99.90;;;;;;4904117;29;20213;-90
2022/09/18 06:03:26;;;;;;;7.45;0.82;;;9.50;99.90;;;;;;4903552;29;20237;-92
2022/09/18 06:05:54;;;;;;;11.02;1.30;;;9.50;99.90;;;;;;4904173;29;20574;-91
2022/09/18 06:08:20;;;;;;;7.18;1.23;;;9.60;99.90;;;;;;4920179;29;20255;-91
2022/09/18 06:10:46;;;;;;;7.35;1.17;;;9.60;99.90;;;;;;4903833;29;20838;-86
2022/09/18 06:13:17;;;;;;;4.35;1.08;;;9.70;99.90;;;;;;4903690;29;20190;-89
2022/09/18 06:15:45;;;;;;;6.80;0.90;;;9.70;99.90;;;;;;4903484;29;20186;-88
2022/09/18 06:18:13;;;;;;;8.73;1.48;;;9.70;99.90;;;;;;4903651;29;20182;-89
2022/09/18 06:20:42;;;;;;;9.23;0.77;;;9.70;99.90;;;;;;4920814;29;20174;-87
2022/09/18 06:23:08;;;;;;;3.70;0.88;;;9.80;99.90;;;;;;4920329;29;20218;-87
2022/09/18 06:25:41;;;;;;;7.45;1.17;;;9.70;99.90;;;;;;4903585;29;20274;-89
2022/09/18 06:28:07;;;;;;;4.78;1.10;;;9.80;99.90;;;;;;4919224;29;20199;-90
2022/09/18 06:30:34;;;;;;;4.38;1.00;;;9.80;99.90;;;;;;4920570;29;20246;-89
2022/09/18 06:33:05;;;;;;;8.45;1.55;;;9.90;99.90;;;;;;4903021;29;20265;-90
2022/09/18 06:35:34;;;;;;;6.95;1.17;;;10.00;99.90;;;;;;4903498;29;20230;-90
2022/09/18 06:38:04;;;;;;;11.13;1.55;;;10.10;99.90;;;;;;4903519;29;20190;-90
2022/09/18 06:40:31;;;;;;;6.88;1.10;;;10.10;99.90;;;;;;4903373;29;20182;-88
2022/09/18 06:42:58;;;;;;;4.53;0.80;;;10.30;99.90;;;;;;4903360;29;20337;-87
2022/09/18 06:45:24;;;;;;;6.50;1.20;;;10.30;99.90;;;;;;4920228;29;20174;-95
2022/09/18 06:47:54;;;;;;;6.00;1.13;;;10.30;99.90;;;;;;4920379;29;20314;-92
2022/09/18 06:50:24;;;;;;;6.38;0.98;;;10.30;99.90;;;;;;4903571;29;20501;-93
2022/09/18 06:52:50;;;;;;;7.78;1.55;;;10.30;99.90;;;;;;4903308;29;20699;-92
2022/09/18 06:55:17;;;;;;;5.63;0.95;;;10.30;99.90;;;;;;4903092;29;20204;-92
2022/09/18 06:57:55;;;;;;;6.90;1.20;;;10.40;99.90;;;;;;4903061;29;20241;-86
2022/09/18 07:00:22;;;;;;;12.10;2.00;;;10.40;99.90;;;;;;4903379;29;20258;-90
2022/09/18 07:02:55;;;;;;;8.55;1.02;;;10.40;99.90;;;;;;4903145;29;20226;-87
2022/09/18 07:05:22;;;;;;;6.18;0.77;;;10.50;99.90;;;;;;4903074;29;20323;-88
2022/09/18 07:07:48;;;;;;;5.32;1.45;;;10.60;99.90;;;;;;4903143;29;20204;-87
2022/09/18 07:10:13;;;;;;;4.60;0.98;;;10.60;99.90;;;;;;4903116;29;20186;-87
2022/09/18 07:12:39;;;;;;;6.60;1.50;;;10.70;99.90;;;;;;4903160;29;20182;-91
2022/09/18 07:15:05;;;;;;;6.50;1.38;;;10.80;99.90;;;;;;4903013;29;20181;-91
2022/09/18 07:17:32;;;;;;;5.57;1.15;;;10.90;99.90;;;;;;4903122;29;20183;-91
2022/09/18 07:19:57;;;;;;;4.60;1.05;;;11.00;99.90;;;;;;4919549;29;20163;-92
2022/09/18 07:22:23;;;;;;;7.50;1.00;;;11.10;99.90;;;;;;4902872;29;20220;-92
2022/09/18 07:24:48;;;;;;;4.38;0.95;;;11.20;99.90;;;;;;4902743;29;20178;-88
2022/09/18 07:27:16;;;;;;;4.85;1.08;;;11.30;99.90;;;;;;4902959;29;20190;-92
2022/09/18 07:29:42;;;;;;;4.60;1.15;;;11.40;99.90;;;;;;4902582;29;20524;-92
2022/09/18 07:32:08;;;;;;;3.03;1.10;;;11.40;99.90;;;;;;4902366;29;20329;-94
2022/09/18 07:34:34;;;;;;;7.70;1.20;;;11.40;99.90;;;;;;4901847;29;20265;-90
2022/09/18 07:37:07;;;;;;;8.98;1.20;;;11.40;99.90;;;;;;4902606;29;20190;-91
2022/09/18 07:39:33;;;;;;;11.95;1.40;;;11.50;99.90;;;;;;4902564;29;20618;-93
2022/09/18 07:41:58;;;;;;;5.68;1.05;;;11.70;99.90;;;;;;4902573;29;20206;-90
2022/09/18 07:44:25;;;;;;;6.78;1.10;;;11.70;99.90;;;;;;4902467;29;20229;-94
2022/09/18 07:46:54;;;;;;;5.75;1.02;;;11.60;99.90;;;;;;4902508;29;20641;-90
2022/09/18 07:49:19;;;;;;;3.00;0.90;;;11.70;99.90;;;;;;4902474;29;20513;-89
2022/09/18 07:51:45;;;;;;;4.25;1.08;;;11.70;99.90;;;;;;4902564;29;20182;-88
2022/09/18 07:54:11;;;;;;;7.85;1.20;;;11.80;99.90;;;;;;4902329;29;20175;-86
2022/09/18 07:56:38;;;;;;;6.47;1.40;;;11.90;99.90;;;;;;4902530;29;20285;-89
2022/09/18 07:59:03;;;;;;;7.40;1.10;;;11.90;99.90;;;;;;4902359;29;20167;-91
2022/09/18 08:01:29;;;;;;;5.07;1.23;;;12.00;99.90;;;;;;4902174;29;20238;-91
2022/09/18 08:03:55;;;;;;;6.22;1.52;;;12.00;99.90;;;;;;4902053;29;20193;-90
2022/09/18 08:06:21;;;;;;;3.67;1.23;;;12.10;99.90;;;;;;4902296;29;20571;-90
2022/09/18 08:08:46;;;;;;;5.68;1.02;;;12.20;99.90;;;;;;4902360;29;20281;-90
2022/09/18 08:11:12;;;;;;;10.65;1.30;;;12.20;99.90;;;;;;4902476;29;20189;-90
2022/09/18 08:13:38;;;;;;;5.63;1.20;;;12.20;99.90;;;;;;4902194;29;20189;-90
2022/09/18 08:16:05;;;;;;;3.15;0.85;;;12.40;99.90;;;;;;4902026;29;20178;-89
2022/09/18 08:18:35;;;;;;;3.67;1.00;;;12.40;99.90;;;;;;4918787;29;20174;-90
2022/09/18 08:21:00;;;;;;;6.63;1.10;;;12.50;99.90;;;;;;4902113;29;20187;-90
2022/09/18 08:23:26;;;;;;;13.25;1.15;;;12.60;99.90;;;;;;4902023;29;20225;-90
2022/09/18 08:25:52;;;;;;;11.57;1.33;;;12.70;99.90;;;;;;4919003;29;20191;-91
2022/09/18 08:28:18;;;;;;;6.47;1.17;;;12.80;99.90;;;;;;4901928;29;20641;-88
2022/09/18 08:30:44;;;;;;;6.03;1.30;;;12.80;99.90;;;;;;4902137;29;20489;-89
2022/09/18 08:33:10;;;;;;;7.93;1.00;;;12.90;99.90;;;;;;4917371;29;20261;-90
2022/09/18 08:35:36;;;;;;;4.85;1.30;;;12.90;99.90;;;;;;4901481;29;20178;-90
2022/09/18 08:38:02;;;;;;;6.15;1.10;;;12.90;99.90;;;;;;4902074;29;20186;-90
2022/09/18 08:40:48;;;;;;;7.18;1.42;;;12.90;99.90;;;;;;4918748;29;20249;-89
2022/09/18 08:43:33;;;;;;;6.63;1.02;;;12.80;99.90;;;;;;4918219;29;20218;-88
2022/09/18 08:46:07;;;;;;;5.60;1.20;;;12.70;99.90;;;;;;4919170;29;20587;-90
2022/09/18 08:48:39;;;;;;;12.57;1.20;;;12.70;99.90;;;;;;4905356;29;20178;-89
2022/09/18 08:51:17;;;;;;;5.43;1.33;;;12.80;99.90;;;;;;4905851;29;20170;-91
2022/09/18 08:53:49;;;;;;;6.35;1.13;;;12.70;99.90;;;;;;4921505;29;20171;-88
2022/09/18 08:56:19;;;;;;;5.80;1.17;;;12.70;99.90;;;;;;4905569;29;20189;-90
2022/09/18 08:59:02;;;;;;;10.73;1.25;;;12.70;99.90;;;;;;4905607;29;20167;-89
2022/09/18 09:01:50;;;;;;;10.98;1.23;;;12.70;99.90;;;;;;4905531;29;20180;-90
2022/09/18 09:04:27;;;;;;;3.38;1.00;;;12.80;99.90;;;;;;4905141;29;20175;-87
2022/09/18 09:07:17;;;;;;;5.97;1.00;;;13.10;99.90;;;;;;4905335;29;20639;-90
2022/09/18 09:10:14;;;;;;;6.03;1.10;;;13.30;99.90;;;;;;4921099;29;20178;-90
2022/09/18 09:12:57;;;;;;;9.38;1.15;;;13.40;99.90;;;;;;4922094;29;20175;-88
2022/09/18 09:15:34;;;;;;;6.20;1.10;;;13.60;99.90;;;;;;4905545;29;20273;-90
2022/09/18 09:18:18;;;;;;;3.17;0.82;;;13.60;99.90;;;;;;4921010;29;20238;-91
2022/09/18 09:20:47;;;;;;;4.68;1.25;;;13.50;99.90;;;;;;4905216;29;20659;-91
2022/09/18 09:23:44;;;;;;;6.30;1.00;;;13.40;99.90;;;;;;4920792;29;20266;-89
2022/09/18 09:26:21;;;;;;;3.58;0.90;;;13.30;99.90;;;;;;4920581;29;20175;-92
2022/09/18 09:29:28;;;;;;;3.40;0.80;;;13.20;99.90;;;;;;4922076;29;20171;-90
2022/09/18 09:31:58;;;;;;;3.00;0.82;;;13.30;99.90;;;;;;4904511;29;20189;-91
2022/09/18 09:34:32;;;;;;;5.18;0.77;;;13.30;99.90;;;;;;4904704;29;20571;-89
2022/09/18 09:37:12;;;;;;;4.13;0.90;;;13.40;99.90;;;;;;4920558;29;20190;-90
2022/09/18 09:39:44;;;;;;;3.90;0.68;;;13.40;99.90;;;;;;4921528;29;20185;-89
2022/09/18 09:42:21;;;;;;;4.15;0.95;;;13.50;99.90;;;;;;4904817;29;20226;-90
2022/09/18 09:45:07;;;;;;;1.90;1.10;;;13.60;99.90;;;;;;4904581;29;20701;-89
2022/09/18 09:48:09;;;;;;;3.42;0.90;;;13.60;99.90;;;;;;4920703;29;20189;-91
2022/09/18 09:50:56;;;;;;;3.13;0.70;;;13.80;99.90;;;;;;4904353;29;20193;-90
2022/09/18 09:53:25;;;;;;;4.25;0.80;;;14.00;99.90;;;;;;4920790;29;20178;-91
2022/09/18 09:56:06;;;;;;;3.95;0.95;;;14.10;99.90;;;;;;4904302;29;20183;-90
2022/09/18 09:58:51;;;;;;;4.60;1.33;;;14.00;99.90;;;;;;4920375;29;20380;-91
2022/09/18 10:01:52;;;;;;;4.57;0.80;;;13.90;99.90;;;;;;4920181;29;20580;-90
2022/09/18 10:04:53;;;;;;;7.85;1.17;;;13.80;99.90;;;;;;4904301;29;20198;-87
2022/09/18 10:07:57;;;;;;;8.52;0.98;;;13.80;99.90;;;;;;4904500;29;20265;-90
2022/09/18 10:10:29;;;;;;;2.35;0.60;;;14.00;99.90;;;;;;4920240;29;20576;-90
2022/09/18 10:13:16;;;;;;;3.42;0.68;;;14.10;99.90;;;;;;4920004;29;20175;-92
2022/09/18 10:16:14;;;;;;;3.60;0.77;;;14.10;99.90;;;;;;4904185;29;20198;-91
2022/09/18 10:18:44;;;;;;;5.15;0.80;;;14.20;99.90;;;;;;4919698;29;20225;-87
2022/09/18 10:21:16;;;;;;;2.53;0.80;;;14.20;99.90;;;;;;4904581;29;20178;-90
2022/09/18 10:23:48;;;;;;;4.57;0.77;;;14.20;99.90;;;;;;4903786;29;20361;-91
2022/09/18 10:26:30;;;;;;;3.13;1.10;;;14.20;99.90;;;;;;4904277;29;20178;-91
2022/09/18 10:28:57;;;;;;;3.67;0.70;;;14.20;99.90;;;;;;4904072;29;20213;-93
2022/09/18 10:31:50;;;;;;;2.13;0.60;;;14.30;99.90;;;;;;4904056;29;20185;-90
2022/09/18 10:34:39;;;;;;;3.85;0.95;;;14.40;99.90;;;;;;4884473;29;20230;-91
2022/09/18 10:37:28;;;;;;;5.55;0.95;;;14.60;99.90;;;;;;4884902;29;20190;-91
2022/09/18 10:40:00;;;;;;;5.30;0.90;;;14.70;99.90;;;;;;4883787;29;20194;-90
2022/09/18 10:42:36;;;;;;;5.38;0.60;;;14.70;99.90;;;;;;4884529;29;20627;-91
2022/09/18 10:45:05;;;;;;;6.22;0.95;;;14.80;99.90;;;;;;4884678;29;20183;-90
2022/09/18 10:47:35;;;;;;;2.78;0.80;;;14.80;99.90;;;;;;4885201;29;20215;-92
2022/09/18 10:50:10;;;;;;;4.75;0.95;;;14.90;99.90;;;;;;4884937;29;20225;-89
2022/09/18 10:52:40;;;;;;;6.65;0.88;;;14.90;99.90;;;;;;4885214;29;20186;-91
2022/09/18 10:55:08;;;;;;;2.13;0.50;;;14.90;99.90;;;;;;4884995;29;20228;-89
2022/09/18 10:57:36;;;;;;;2.13;0.90;;;14.80;99.90;;;;;;4884833;29;20179;-91
2022/09/18 11:00:19;;;;;;;2.35;0.73;;;14.60;99.90;;;;;;4900372;29;20522;-91
2022/09/18 11:03:14;;;;;;;5.28;1.13;;;14.40;99.90;;;;;;4891622;29;20230;-90
2022/09/18 11:05:54;;;;;;;3.55;1.15;;;14.30;99.90;;;;;;4886672;29;20234;-90
2022/09/18 11:08:32;;;;;;;5.15;1.17;;;14.30;99.90;;;;;;4902551;29;20182;-90
2022/09/18 11:11:33;;;;;;;4.30;0.85;;;14.30;99.90;;;;;;4903407;29;20610;-92
2022/09/18 11:14:00;;;;;;;5.15;0.98;;;14.20;99.90;;;;;;4903064;29;20612;-95
2022/09/18 11:16:30;;;;;;;2.88;0.70;;;14.10;99.90;;;;;;4903269;29;20681;-91
2022/09/18 11:19:37;;;;;;;6.70;1.30;;;13.90;99.90;;;;;;4902913;29;20614;-90
2022/09/18 11:22:05;;;;;;;5.75;0.90;;;14.00;99.90;;;;;;4903051;29;20194;-91
2022/09/18 11:24:34;;;;;;;4.18;0.70;;;14.10;99.90;;;;;;4902675;29;20224;-91
2022/09/18 11:27:02;;;;;;;2.70;0.77;;;14.20;99.90;;;;;;4902849;29;20179;-90
2022/09/18 11:29:33;;;;;;;7.60;0.73;;;14.30;99.90;;;;;;4902820;29;20186;-90
2022/09/18 11:32:28;;;;;;;4.45;0.70;;;14.30;99.90;;;;;;4902755;29;20238;-91
2022/09/18 11:35:03;;;;;;;4.72;0.77;;;14.40;99.90;;;;;;4902377;29;20534;-89
2022/09/18 11:37:50;;;;;;;3.70;0.85;;;14.60;99.90;;;;;;4902470;29;20240;-89
2022/09/18 11:40:32;;;;;;;2.80;0.65;;;14.70;99.90;;;;;;4902769;29;20175;-90
2022/09/18 11:43:04;;;;;;;1.80;0.57;;;14.80;99.90;;;;;;4902377;29;20226;-92
2022/09/18 11:46:00;;;;;;;4.10;0.88;;;15.00;99.90;;;;;;4902534;29;20531;-90
2022/09/18 11:48:28;;;;;;;2.72;0.60;;;15.00;99.90;;;;;;4902580;29;20217;-92
2022/09/18 11:50:56;;;;;;;3.08;0.70;;;14.80;99.90;;;;;;4918329;29;20175;-92
2022/09/18 11:53:28;;;;;;;8.45;0.75;;;14.60;99.90;;;;;;4903054;29;20186;-85
2022/09/18 11:56:17;;;;;;;5.93;0.90;;;14.00;99.90;;;;;;4904222;29;20205;-91
2022/09/18 11:59:35;;;;;;;2.67;0.40;;;12.90;99.90;;;;;;4903064;29;20181;-89
2022/09/18 12:02:23;;;;;;;2.63;0.55;;;11.10;99.90;;;;;;4898898;29;20226;-89
2022/09/18 12:05:05;;;;;;;2.70;0.90;;;10.30;99.90;;;;;;4922627;29;20533;-88
2022/09/18 12:08:08;;;;;;;8.15;0.80;;;10.00;99.90;;;;;;4921883;29;20188;-84
2022/09/18 12:11:12;;;;;;;2.80;0.70;;;9.90;99.90;;;;;;4921487;29;20193;-85
2022/09/18 12:14:03;;;;;;;3.50;0.77;;;9.90;99.90;;;;;;4881203;29;20184;-85
2022/09/18 12:16:29;;;;;;;3.97;1.00;;;9.90;99.90;;;;;;4880837;29;20168;-85
2022/09/18 12:19:20;;;;;;;2.30;0.73;;;9.90;99.90;;;;;;4918345;29;20253;-83
2022/09/18 12:22:00;;;;;;;3.13;0.90;;;9.90;99.90;;;;;;4939749;29;20505;-82
2022/09/18 12:24:25;;;;;;;4.22;0.88;;;9.70;99.90;;;;;;4940220;29;20265;-84
2022/09/18 12:26:57;;;;;;;2.08;0.80;;;9.70;99.90;;;;;;4939242;29;20209;-83
2022/09/18 12:29:26;;;;;;;2.80;0.70;;;9.60;99.90;;;;;;4922722;29;20516;-85
2022/09/18 12:32:20;;;;;;;3.97;0.80;;;9.60;99.90;;;;;;4922410;29;20186;-83
2022/09/18 12:35:10;;;;;;;3.27;1.13;;;9.60;99.90;;;;;;4940456;29;20162;-84
2022/09/18 12:37:55;;;;;;;1.65;0.50;;;9.70;99.90;;;;;;4941825;29;20197;-84
2022/09/18 12:40:36;;;;;;;1.80;0.50;;;9.80;99.90;;;;;;4923174;29;20202;-84
2022/09/18 12:43:30;;;;;;;1.80;0.50;;;10.00;99.90;;;;;;4922118;29;20225;-85
2022/09/18 12:46:09;;;;;;;3.08;0.40;;;10.20;99.90;;;;;;4922349;29;20526;-86
2022/09/18 12:48:59;;;;;;;1.23;0.70;;;10.30;99.90;;;;;;4921611;29;20248;-87
2022/09/18 12:51:46;;;;;;;2.15;0.50;;;10.50;99.90;;;;;;4940311;29;20269;-85
2022/09/18 12:54:19;;;;;;;2.30;0.50;;;10.60;99.90;;;;;;4923859;29;20514;-85
2022/09/18 12:57:13;;;;;;;1.42;0.50;;;10.60;99.90;;;;;;4923392;29;20200;-85
2022/09/18 12:59:53;;;;;;;2.72;0.47;;;10.70;99.90;;;;;;4924210;29;20178;-86
2022/09/18 13:02:53;;;;;;;0.93;0.43;;;10.90;99.90;;;;;;4939779;29;20198;-88
2022/09/18 13:05:29;;;;;;;1.88;0.73;;;11.00;99.90;;;;;;4923012;29;20272;-87
2022/09/18 13:08:20;;;;;;;5.28;0.40;;;11.10;99.90;;;;;;4924050;29;20230;-87
2022/09/18 13:10:59;;;;;;;1.35;0.52;;;11.20;99.90;;;;;;4940573;29;20222;-86
2022/09/18 13:13:39;;;;;;;0.73;0.60;;;11.30;99.90;;;;;;4939393;29;20635;-86
2022/09/18 13:16:39;;;;;;;3.13;0.70;;;11.40;99.90;;;;;;4924303;29;20177;-88
2022/09/18 13:19:19;;;;;;;3.22;0.70;;;11.50;99.90;;;;;;4917938;29;20305;-87
2022/09/18 13:21:46;;;;;;;2.47;0.60;;;11.50;99.90;;;;;;4924137;29;20182;-89